sensor_id;sensor_type;location;lat;lon;timestamp;P1;durP1;ratioP1;P2;durP2;ratioP2
23728;SDS011;12045;60.214;24.724;2024-01-30T00:00:58;3.35;;;1.20;;
23728;SDS011;12045;60.214;24.724;2024-01-30T00:03:27;4.47;;;1.97;;
23728;SDS011;12045;60.214;24.724;2024-01-30T00:05:56;5.60;;;2.30;;
23728;SDS011;12045;60.214;24.724;2024-01-30T00:08:26;3.57;;;1.37;;
23728;SDS011;12045;60.214;24.724;2024-01-30T00:10:54;4.37;;;2.33;;
23728;SDS011;12045;60.214;24.724;2024-01-30T00:13:22;2.37;;;1.10;;
23728;SDS011;12045;60.214;24.724;2024-01-30T00:15:52;2.95;;;1.13;;
23728;SDS011;12045;60.214;24.724;2024-01-30T00:18:20;1.13;;;0.50;;
23728;SDS011;12045;60.214;24.724;2024-01-30T00:20:48;6.90;;;1.97;;
23728;SDS011;12045;60.214;24.724;2024-01-30T00:23:18;3.97;;;1.87;;
23728;SDS011;12045;60.214;24.724;2024-01-30T00:25:46;2.40;;;1.70;;
23728;SDS011;12045;60.214;24.724;2024-01-30T00:28:16;1.20;;;1.00;;
23728;SDS011;12045;60.214;24.724;2024-01-30T00:30:44;3.73;;;1.50;;
23728;SDS011;12045;60.214;24.724;2024-01-30T00:33:13;3.80;;;2.27;;
23728;SDS011;12045;60.214;24.724;2024-01-30T00:35:42;4.13;;;2.37;;
23728;SDS011;12045;60.214;24.724;2024-01-30T00:38:10;4.00;;;1.80;;
23728;SDS011;12045;60.214;24.724;2024-01-30T00:40:41;2.13;;;1.30;;
23728;SDS011;12045;60.214;24.724;2024-01-30T00:43:09;9.67;;;2.67;;
23728;SDS011;12045;60.214;24.724;2024-01-30T00:45:37;5.80;;;2.27;;
23728;SDS011;12045;60.214;24.724;2024-01-30T00:48:08;5.40;;;2.57;;
23728;SDS011;12045;60.214;24.724;2024-01-30T00:50:37;2.97;;;1.57;;
23728;SDS011;12045;60.214;24.724;2024-01-30T00:53:06;3.30;;;1.87;;
23728;SDS011;12045;60.214;24.724;2024-01-30T00:55:35;4.53;;;2.50;;
23728;SDS011;12045;60.214;24.724;2024-01-30T00:58:02;4.97;;;2.53;;
23728;SDS011;12045;60.214;24.724;2024-01-30T01:00:32;7.63;;;3.07;;
23728;SDS011;12045;60.214;24.724;2024-01-30T01:03:01;5.77;;;2.27;;
23728;SDS011;12045;60.214;24.724;2024-01-30T01:05:28;10.02;;;2.78;;
23728;SDS011;12045;60.214;24.724;2024-01-30T01:07:59;6.47;;;2.70;;
23728;SDS011;12045;60.214;24.724;2024-01-30T01:10:26;7.28;;;3.00;;
23728;SDS011;12045;60.214;24.724;2024-01-30T01:12:55;12.05;;;3.15;;
23728;SDS011;12045;60.214;24.724;2024-01-30T01:15:24;9.63;;;3.30;;
23728;SDS011;12045;60.214;24.724;2024-01-30T01:17:56;8.88;;;3.33;;
23728;SDS011;12045;60.214;24.724;2024-01-30T01:20:25;5.75;;;2.90;;
23728;SDS011;12045;60.214;24.724;2024-01-30T01:22:53;9.38;;;2.88;;
23728;SDS011;12045;60.214;24.724;2024-01-30T01:25:24;16.00;;;3.08;;
23728;SDS011;12045;60.214;24.724;2024-01-30T01:27:54;8.70;;;3.10;;
23728;SDS011;12045;60.214;24.724;2024-01-30T01:30:21;6.43;;;2.92;;
23728;SDS011;12045;60.214;24.724;2024-01-30T01:32:49;7.20;;;3.00;;
23728;SDS011;12045;60.214;24.724;2024-01-30T01:35:24;9.05;;;3.00;;
23728;SDS011;12045;60.214;24.724;2024-01-30T01:37:53;7.78;;;3.10;;
23728;SDS011;12045;60.214;24.724;2024-01-30T01:40:26;8.88;;;3.47;;
23728;SDS011;12045;60.214;24.724;2024-01-30T01:42:57;14.40;;;3.60;;
23728;SDS011;12045;60.214;24.724;2024-01-30T01:45:25;5.78;;;3.15;;
23728;SDS011;12045;60.214;24.724;2024-01-30T01:47:52;14.98;;;3.50;;
23728;SDS011;12045;60.214;24.724;2024-01-30T01:50:21;6.90;;;3.08;;
23728;SDS011;12045;60.214;24.724;2024-01-30T01:52:50;6.32;;;2.95;;
23728;SDS011;12045;60.214;24.724;2024-01-30T01:55:20;8.60;;;2.78;;
23728;SDS011;12045;60.214;24.724;2024-01-30T01:57:49;7.80;;;2.88;;
23728;SDS011;12045;60.214;24.724;2024-01-30T02:00:18;8.60;;;3.10;;
23728;SDS011;12045;60.214;24.724;2024-01-30T02:02:49;6.68;;;3.08;;
23728;SDS011;12045;60.214;24.724;2024-01-30T02:05:19;8.93;;;2.92;;
23728;SDS011;12045;60.214;24.724;2024-01-30T02:07:49;7.07;;;2.63;;
23728;SDS011;12045;60.214;24.724;2024-01-30T02:10:18;11.60;;;3.10;;
23728;SDS011;12045;60.214;24.724;2024-01-30T02:12:48;10.35;;;3.15;;
23728;SDS011;12045;60.214;24.724;2024-01-30T02:15:16;7.40;;;3.10;;
23728;SDS011;12045;60.214;24.724;2024-01-30T02:17:47;9.57;;;3.22;;
23728;SDS011;12045;60.214;24.724;2024-01-30T02:20:16;8.38;;;3.35;;
23728;SDS011;12045;60.214;24.724;2024-01-30T02:22:44;7.57;;;2.75;;
23728;SDS011;12045;60.214;24.724;2024-01-30T02:25:15;5.53;;;2.70;;
23728;SDS011;12045;60.214;24.724;2024-01-30T02:27:44;6.28;;;2.50;;
23728;SDS011;12045;60.214;24.724;2024-01-30T02:30:13;5.25;;;2.97;;
23728;SDS011;12045;60.214;24.724;2024-01-30T02:32:41;8.05;;;2.53;;
23728;SDS011;12045;60.214;24.724;2024-01-30T02:35:09;11.27;;;3.13;;
23728;SDS011;12045;60.214;24.724;2024-01-30T02:37:38;6.13;;;2.83;;
23728;SDS011;12045;60.214;24.724;2024-01-30T02:40:06;8.57;;;2.83;;
23728;SDS011;12045;60.214;24.724;2024-01-30T02:42:35;5.53;;;2.70;;
23728;SDS011;12045;60.214;24.724;2024-01-30T02:45:04;7.35;;;2.90;;
23728;SDS011;12045;60.214;24.724;2024-01-30T02:47:31;6.68;;;3.10;;
23728;SDS011;12045;60.214;24.724;2024-01-30T02:50:02;6.85;;;2.70;;
23728;SDS011;12045;60.214;24.724;2024-01-30T02:52:32;6.88;;;3.20;;
23728;SDS011;12045;60.214;24.724;2024-01-30T02:54:59;8.73;;;3.35;;
23728;SDS011;12045;60.214;24.724;2024-01-30T02:57:29;13.18;;;3.00;;
23728;SDS011;12045;60.214;24.724;2024-01-30T02:59:57;12.07;;;3.60;;
23728;SDS011;12045;60.214;24.724;2024-01-30T03:02:26;13.02;;;3.50;;
23728;SDS011;12045;60.214;24.724;2024-01-30T03:04:54;12.23;;;3.17;;
23728;SDS011;12045;60.214;24.724;2024-01-30T03:07:26;7.53;;;3.17;;
23728;SDS011;12045;60.214;24.724;2024-01-30T03:09:55;9.05;;;3.40;;
23728;SDS011;12045;60.214;24.724;2024-01-30T03:12:23;9.32;;;2.78;;
23728;SDS011;12045;60.214;24.724;2024-01-30T03:14:54;6.15;;;2.97;;
23728;SDS011;12045;60.214;24.724;2024-01-30T03:17:22;7.43;;;3.10;;
23728;SDS011;12045;60.214;24.724;2024-01-30T03:19:54;11.37;;;3.00;;
23728;SDS011;12045;60.214;24.724;2024-01-30T03:22:23;4.53;;;2.58;;
23728;SDS011;12045;60.214;24.724;2024-01-30T03:24:52;10.20;;;2.88;;
23728;SDS011;12045;60.214;24.724;2024-01-30T03:27:20;12.73;;;3.40;;
23728;SDS011;12045;60.214;24.724;2024-01-30T03:29:47;5.07;;;3.08;;
23728;SDS011;12045;60.214;24.724;2024-01-30T03:32:16;9.18;;;2.92;;
23728;SDS011;12045;60.214;24.724;2024-01-30T03:34:45;4.70;;;2.77;;
23728;SDS011;12045;60.214;24.724;2024-01-30T03:37:13;6.63;;;2.73;;
23728;SDS011;12045;60.214;24.724;2024-01-30T03:39:41;13.60;;;2.70;;
23728;SDS011;12045;60.214;24.724;2024-01-30T03:42:08;10.75;;;3.15;;
23728;SDS011;12045;60.214;24.724;2024-01-30T03:44:40;5.87;;;3.03;;
23728;SDS011;12045;60.214;24.724;2024-01-30T03:47:07;9.47;;;3.13;;
23728;SDS011;12045;60.214;24.724;2024-01-30T03:49:35;7.50;;;2.80;;
23728;SDS011;12045;60.214;24.724;2024-01-30T03:52:03;6.37;;;2.90;;
23728;SDS011;12045;60.214;24.724;2024-01-30T03:54:32;5.67;;;2.93;;
23728;SDS011;12045;60.214;24.724;2024-01-30T03:57:01;10.47;;;3.17;;
23728;SDS011;12045;60.214;24.724;2024-01-30T03:59:29;7.88;;;3.22;;
23728;SDS011;12045;60.214;24.724;2024-01-30T04:01:56;7.10;;;3.40;;
23728;SDS011;12045;60.214;24.724;2024-01-30T04:04:27;9.23;;;2.73;;
23728;SDS011;12045;60.214;24.724;2024-01-30T04:06:55;8.43;;;3.30;;
23728;SDS011;12045;60.214;24.724;2024-01-30T04:09:23;11.25;;;3.40;;
23728;SDS011;12045;60.214;24.724;2024-01-30T04:11:53;4.87;;;2.47;;
23728;SDS011;12045;60.214;24.724;2024-01-30T04:14:21;7.90;;;2.77;;
23728;SDS011;12045;60.214;24.724;2024-01-30T04:16:51;7.17;;;3.20;;
23728;SDS011;12045;60.214;24.724;2024-01-30T04:19:22;8.27;;;2.83;;
23728;SDS011;12045;60.214;24.724;2024-01-30T04:21:50;9.30;;;3.47;;
23728;SDS011;12045;60.214;24.724;2024-01-30T04:24:18;9.67;;;3.80;;
23728;SDS011;12045;60.214;24.724;2024-01-30T04:26:47;6.60;;;3.00;;
23728;SDS011;12045;60.214;24.724;2024-01-30T04:29:17;8.90;;;3.20;;
23728;SDS011;12045;60.214;24.724;2024-01-30T04:31:46;10.13;;;3.10;;
23728;SDS011;12045;60.214;24.724;2024-01-30T04:34:15;9.53;;;3.70;;
23728;SDS011;12045;60.214;24.724;2024-01-30T04:36:43;8.97;;;3.50;;
23728;SDS011;12045;60.214;24.724;2024-01-30T04:39:15;4.63;;;2.80;;
23728;SDS011;12045;60.214;24.724;2024-01-30T04:41:42;9.50;;;3.23;;
23728;SDS011;12045;60.214;24.724;2024-01-30T04:44:13;7.40;;;3.30;;
23728;SDS011;12045;60.214;24.724;2024-01-30T04:46:41;8.37;;;3.03;;
23728;SDS011;12045;60.214;24.724;2024-01-30T04:49:10;6.00;;;3.13;;
23728;SDS011;12045;60.214;24.724;2024-01-30T04:51:39;8.70;;;3.30;;
23728;SDS011;12045;60.214;24.724;2024-01-30T04:54:08;6.93;;;3.03;;
23728;SDS011;12045;60.214;24.724;2024-01-30T04:56:38;11.77;;;3.50;;
23728;SDS011;12045;60.214;24.724;2024-01-30T04:59:06;8.10;;;3.40;;
23728;SDS011;12045;60.214;24.724;2024-01-30T05:01:36;8.53;;;3.23;;
23728;SDS011;12045;60.214;24.724;2024-01-30T05:04:04;6.43;;;3.37;;
23728;SDS011;12045;60.214;24.724;2024-01-30T05:06:40;5.33;;;3.40;;
23728;SDS011;12045;60.214;24.724;2024-01-30T05:09:09;6.90;;;3.47;;
23728;SDS011;12045;60.214;24.724;2024-01-30T05:11:39;7.63;;;3.10;;
23728;SDS011;12045;60.214;24.724;2024-01-30T05:14:08;10.17;;;3.53;;
23728;SDS011;12045;60.214;24.724;2024-01-30T05:16:39;8.47;;;3.20;;
23728;SDS011;12045;60.214;24.724;2024-01-30T05:19:09;10.27;;;3.20;;
23728;SDS011;12045;60.214;24.724;2024-01-30T05:21:37;8.83;;;5.27;;
23728;SDS011;12045;60.214;24.724;2024-01-30T05:24:07;23.83;;;12.33;;
23728;SDS011;12045;60.214;24.724;2024-01-30T05:26:38;43.30;;;23.47;;
23728;SDS011;12045;60.214;24.724;2024-01-30T05:29:06;45.87;;;25.40;;
23728;SDS011;12045;60.214;24.724;2024-01-30T05:31:35;62.03;;;33.63;;
23728;SDS011;12045;60.214;24.724;2024-01-30T05:34:04;48.27;;;28.03;;
23728;SDS011;12045;60.214;24.724;2024-01-30T05:36:32;45.27;;;23.30;;
23728;SDS011;12045;60.214;24.724;2024-01-30T05:39:01;38.70;;;21.13;;
23728;SDS011;12045;60.214;24.724;2024-01-30T05:41:32;26.70;;;15.93;;
23728;SDS011;12045;60.214;24.724;2024-01-30T05:44:02;26.87;;;13.37;;
23728;SDS011;12045;60.214;24.724;2024-01-30T05:46:44;27.08;;;12.73;;
23728;SDS011;12045;60.214;24.724;2024-01-30T05:49:12;18.80;;;8.63;;
23728;SDS011;12045;60.214;24.724;2024-01-30T05:51:40;11.60;;;6.70;;
23728;SDS011;12045;60.214;24.724;2024-01-30T05:54:09;13.43;;;5.93;;
23728;SDS011;12045;60.214;24.724;2024-01-30T05:56:40;7.37;;;4.70;;
23728;SDS011;12045;60.214;24.724;2024-01-30T05:59:08;11.07;;;4.43;;
23728;SDS011;12045;60.214;24.724;2024-01-30T06:01:37;1.80;;;1.70;;
23728;SDS011;12045;60.214;24.724;2024-01-30T06:04:05;5.10;;;2.90;;
23728;SDS011;12045;60.214;24.724;2024-01-30T06:06:32;10.00;;;3.90;;
23728;SDS011;12045;60.214;24.724;2024-01-30T06:09:01;13.17;;;4.53;;
23728;SDS011;12045;60.214;24.724;2024-01-30T06:11:29;11.80;;;4.00;;
23728;SDS011;12045;60.214;24.724;2024-01-30T06:13:58;9.83;;;3.60;;
23728;SDS011;12045;60.214;24.724;2024-01-30T06:16:26;9.53;;;3.63;;
23728;SDS011;12045;60.214;24.724;2024-01-30T06:18:56;23.03;;;4.57;;
23728;SDS011;12045;60.214;24.724;2024-01-30T06:21:25;10.10;;;4.23;;
23728;SDS011;12045;60.214;24.724;2024-01-30T06:23:52;11.93;;;4.53;;
23728;SDS011;12045;60.214;24.724;2024-01-30T06:26:21;11.73;;;4.00;;
23728;SDS011;12045;60.214;24.724;2024-01-30T06:28:50;13.40;;;4.87;;
23728;SDS011;12045;60.214;24.724;2024-01-30T06:31:19;12.23;;;4.53;;
23728;SDS011;12045;60.214;24.724;2024-01-30T06:33:48;11.40;;;3.87;;
23728;SDS011;12045;60.214;24.724;2024-01-30T06:36:17;13.47;;;5.70;;
23728;SDS011;12045;60.214;24.724;2024-01-30T06:38:47;20.43;;;7.57;;
23728;SDS011;12045;60.214;24.724;2024-01-30T06:41:17;14.10;;;6.17;;
23728;SDS011;12045;60.214;24.724;2024-01-30T06:43:46;15.40;;;5.93;;
23728;SDS011;12045;60.214;24.724;2024-01-30T06:46:15;11.77;;;4.60;;
23728;SDS011;12045;60.214;24.724;2024-01-30T06:48:43;13.50;;;3.63;;
23728;SDS011;12045;60.214;24.724;2024-01-30T06:51:13;10.67;;;4.10;;
23728;SDS011;12045;60.214;24.724;2024-01-30T06:53:44;11.77;;;4.63;;
23728;SDS011;12045;60.214;24.724;2024-01-30T06:56:16;13.67;;;4.27;;
23728;SDS011;12045;60.214;24.724;2024-01-30T06:58:48;7.30;;;4.33;;
23728;SDS011;12045;60.214;24.724;2024-01-30T07:01:18;7.00;;;2.27;;
23728;SDS011;12045;60.214;24.724;2024-01-30T07:03:51;5.20;;;2.60;;
23728;SDS011;12045;60.214;24.724;2024-01-30T07:06:22;4.57;;;2.07;;
23728;SDS011;12045;60.214;24.724;2024-01-30T07:08:51;5.20;;;3.40;;
23728;SDS011;12045;60.214;24.724;2024-01-30T07:11:19;6.20;;;3.00;;
23728;SDS011;12045;60.214;24.724;2024-01-30T07:13:52;4.73;;;2.53;;
23728;SDS011;12045;60.214;24.724;2024-01-30T07:18:57;12.50;;;3.60;;
23728;SDS011;12045;60.214;24.724;2024-01-30T07:21:25;8.77;;;4.33;;
23728;SDS011;12045;60.214;24.724;2024-01-30T07:23:55;6.03;;;3.53;;
23728;SDS011;12045;60.214;24.724;2024-01-30T07:26:24;7.17;;;2.87;;
23728;SDS011;12045;60.214;24.724;2024-01-30T07:28:54;10.37;;;4.03;;
23728;SDS011;12045;60.214;24.724;2024-01-30T07:31:21;12.40;;;4.27;;
23728;SDS011;12045;60.214;24.724;2024-01-30T07:33:57;11.60;;;4.70;;
23728;SDS011;12045;60.214;24.724;2024-01-30T07:36:29;11.57;;;4.13;;
23728;SDS011;12045;60.214;24.724;2024-01-30T07:39:00;12.93;;;4.40;;
23728;SDS011;12045;60.214;24.724;2024-01-30T07:41:32;11.03;;;4.30;;
23728;SDS011;12045;60.214;24.724;2024-01-30T07:44:02;8.37;;;3.97;;
23728;SDS011;12045;60.214;24.724;2024-01-30T07:49:48;7.40;;;3.77;;
23728;SDS011;12045;60.214;24.724;2024-01-30T07:52:21;8.57;;;3.43;;
23728;SDS011;12045;60.214;24.724;2024-01-30T07:54:56;8.03;;;3.67;;
23728;SDS011;12045;60.214;24.724;2024-01-30T07:57:28;7.93;;;4.30;;
23728;SDS011;12045;60.214;24.724;2024-01-30T08:05:59;10.43;;;4.17;;
23728;SDS011;12045;60.214;24.724;2024-01-30T08:08:29;13.63;;;4.80;;
23728;SDS011;12045;60.214;24.724;2024-01-30T08:10:57;13.63;;;5.60;;
23728;SDS011;12045;60.214;24.724;2024-01-30T08:13:25;15.80;;;5.40;;
23728;SDS011;12045;60.214;24.724;2024-01-30T08:15:58;10.70;;;6.20;;
23728;SDS011;12045;60.214;24.724;2024-01-30T08:18:28;18.37;;;7.03;;
23728;SDS011;12045;60.214;24.724;2024-01-30T08:20:59;14.70;;;6.93;;
23728;SDS011;12045;60.214;24.724;2024-01-30T08:23:26;15.57;;;6.97;;
23728;SDS011;12045;60.214;24.724;2024-01-30T08:25:56;15.57;;;6.37;;
23728;SDS011;12045;60.214;24.724;2024-01-30T08:33:44;13.63;;;6.20;;
23728;SDS011;12045;60.214;24.724;2024-01-30T08:36:16;14.70;;;7.40;;
23728;SDS011;12045;60.214;24.724;2024-01-30T08:38:47;14.60;;;7.00;;
23728;SDS011;12045;60.214;24.724;2024-01-30T08:41:15;14.33;;;7.37;;
23728;SDS011;12045;60.214;24.724;2024-01-30T08:46:22;17.93;;;7.33;;
23728;SDS011;12045;60.214;24.724;2024-01-30T08:48:53;14.80;;;7.50;;
23728;SDS011;12045;60.214;24.724;2024-01-30T08:51:24;14.40;;;7.50;;
23728;SDS011;12045;60.214;24.724;2024-01-30T08:53:54;13.10;;;7.33;;
23728;SDS011;12045;60.214;24.724;2024-01-30T08:56:27;16.30;;;7.63;;
23728;SDS011;12045;60.214;24.724;2024-01-30T08:59:02;16.47;;;7.57;;
23728;SDS011;12045;60.214;24.724;2024-01-30T09:01:38;18.97;;;8.13;;
23728;SDS011;12045;60.214;24.724;2024-01-30T09:04:26;19.43;;;8.67;;
23728;SDS011;12045;60.214;24.724;2024-01-30T09:07:02;17.00;;;7.80;;
23728;SDS011;12045;60.214;24.724;2024-01-30T09:09:34;17.33;;;9.02;;
23728;SDS011;12045;60.214;24.724;2024-01-30T09:12:10;18.33;;;9.27;;
23728;SDS011;12045;60.214;24.724;2024-01-30T09:14:40;17.87;;;9.07;;
23728;SDS011;12045;60.214;24.724;2024-01-30T09:17:12;19.20;;;9.43;;
23728;SDS011;12045;60.214;24.724;2024-01-30T09:19:45;16.38;;;8.98;;
23728;SDS011;12045;60.214;24.724;2024-01-30T09:22:26;16.98;;;8.13;;
23728;SDS011;12045;60.214;24.724;2024-01-30T09:25:07;16.60;;;7.80;;
23728;SDS011;12045;60.214;24.724;2024-01-30T09:27:39;18.13;;;7.27;;
23728;SDS011;12045;60.214;24.724;2024-01-30T09:30:07;13.95;;;7.43;;
23728;SDS011;12045;60.214;24.724;2024-01-30T09:32:36;16.27;;;7.17;;
23728;SDS011;12045;60.214;24.724;2024-01-30T09:35:06;23.53;;;8.13;;
23728;SDS011;12045;60.214;24.724;2024-01-30T09:37:37;16.27;;;7.57;;
23728;SDS011;12045;60.214;24.724;2024-01-30T09:40:10;17.07;;;6.50;;
23728;SDS011;12045;60.214;24.724;2024-01-30T09:42:40;18.37;;;7.43;;
23728;SDS011;12045;60.214;24.724;2024-01-30T09:45:17;16.23;;;7.43;;
23728;SDS011;12045;60.214;24.724;2024-01-30T09:47:46;16.80;;;7.10;;
23728;SDS011;12045;60.214;24.724;2024-01-30T09:50:21;16.20;;;7.00;;
23728;SDS011;12045;60.214;24.724;2024-01-30T09:52:51;12.73;;;7.13;;
23728;SDS011;12045;60.214;24.724;2024-01-30T09:55:25;12.70;;;7.20;;
23728;SDS011;12045;60.214;24.724;2024-01-30T09:57:55;16.10;;;6.72;;
23728;SDS011;12045;60.214;24.724;2024-01-30T10:00:23;12.43;;;6.57;;
23728;SDS011;12045;60.214;24.724;2024-01-30T10:02:57;18.05;;;7.63;;
23728;SDS011;12045;60.214;24.724;2024-01-30T10:05:26;16.00;;;6.70;;
23728;SDS011;12045;60.214;24.724;2024-01-30T10:08:06;18.75;;;7.68;;
23728;SDS011;12045;60.214;24.724;2024-01-30T10:10:41;13.55;;;6.88;;
23728;SDS011;12045;60.214;24.724;2024-01-30T10:13:13;18.60;;;7.43;;
23728;SDS011;12045;60.214;24.724;2024-01-30T10:15:43;9.68;;;6.25;;
23728;SDS011;12045;60.214;24.724;2024-01-30T10:18:19;14.30;;;7.13;;
23728;SDS011;12045;60.214;24.724;2024-01-30T10:20:51;20.25;;;8.10;;
23728;SDS011;12045;60.214;24.724;2024-01-30T10:26:13;17.15;;;7.53;;
23728;SDS011;12045;60.214;24.724;2024-01-30T10:28:49;18.08;;;7.97;;
23728;SDS011;12045;60.214;24.724;2024-01-30T10:31:18;19.77;;;7.65;;
23728;SDS011;12045;60.214;24.724;2024-01-30T10:33:48;20.67;;;8.85;;
23728;SDS011;12045;60.214;24.724;2024-01-30T10:36:35;16.23;;;8.52;;
23728;SDS011;12045;60.214;24.724;2024-01-30T10:39:12;16.58;;;7.85;;
23728;SDS011;12045;60.214;24.724;2024-01-30T10:41:44;17.63;;;9.05;;
23728;SDS011;12045;60.214;24.724;2024-01-30T10:44:17;17.92;;;8.73;;
23728;SDS011;12045;60.214;24.724;2024-01-30T10:46:51;9.02;;;5.97;;
23728;SDS011;12045;60.214;24.724;2024-01-30T10:49:35;18.33;;;7.72;;
23728;SDS011;12045;60.214;24.724;2024-01-30T10:52:05;15.88;;;6.57;;
23728;SDS011;12045;60.214;24.724;2024-01-30T10:54:43;16.05;;;7.50;;
23728;SDS011;12045;60.214;24.724;2024-01-30T10:57:13;19.42;;;7.03;;
23728;SDS011;12045;60.214;24.724;2024-01-30T10:59:45;17.58;;;6.40;;
23728;SDS011;12045;60.214;24.724;2024-01-30T11:02:18;15.63;;;5.75;;
23728;SDS011;12045;60.214;24.724;2024-01-30T11:04:50;10.98;;;5.97;;
23728;SDS011;12045;60.214;24.724;2024-01-30T11:07:25;15.55;;;6.47;;
23728;SDS011;12045;60.214;24.724;2024-01-30T11:12:33;14.23;;;5.45;;
23728;SDS011;12045;60.214;24.724;2024-01-30T11:15:15;14.80;;;5.22;;
23728;SDS011;12045;60.214;24.724;2024-01-30T11:17:51;14.05;;;5.32;;
23728;SDS011;12045;60.214;24.724;2024-01-30T11:20:22;17.90;;;6.03;;
23728;SDS011;12045;60.214;24.724;2024-01-30T11:22:56;18.73;;;5.35;;
23728;SDS011;12045;60.214;24.724;2024-01-30T11:25:29;13.43;;;5.55;;
23728;SDS011;12045;60.214;24.724;2024-01-30T11:28:03;14.95;;;6.10;;
23728;SDS011;12045;60.214;24.724;2024-01-30T11:30:33;15.43;;;6.75;;
23728;SDS011;12045;60.214;24.724;2024-01-30T11:33:08;13.57;;;5.95;;
23728;SDS011;12045;60.214;24.724;2024-01-30T11:35:44;16.75;;;6.22;;
23728;SDS011;12045;60.214;24.724;2024-01-30T11:38:18;15.73;;;6.32;;
23728;SDS011;12045;60.214;24.724;2024-01-30T11:40:47;16.15;;;5.35;;
23728;SDS011;12045;60.214;24.724;2024-01-30T11:43:18;14.75;;;5.35;;
23728;SDS011;12045;60.214;24.724;2024-01-30T11:45:49;13.18;;;5.53;;
23728;SDS011;12045;60.214;24.724;2024-01-30T11:48:17;8.18;;;4.45;;
23728;SDS011;12045;60.214;24.724;2024-01-30T11:50:48;7.97;;;4.65;;
23728;SDS011;12045;60.214;24.724;2024-01-30T11:53:19;14.20;;;5.28;;
23728;SDS011;12045;60.214;24.724;2024-01-30T11:55:55;11.15;;;4.97;;
23728;SDS011;12045;60.214;24.724;2024-01-30T11:58:26;8.10;;;3.65;;
23728;SDS011;12045;60.214;24.724;2024-01-30T12:00:55;11.23;;;4.30;;
23728;SDS011;12045;60.214;24.724;2024-01-30T12:03:25;9.82;;;4.53;;
23728;SDS011;12045;60.214;24.724;2024-01-30T12:05:58;13.25;;;4.55;;
23728;SDS011;12045;60.214;24.724;2024-01-30T12:08:37;17.30;;;4.93;;
23728;SDS011;12045;60.214;24.724;2024-01-30T12:11:06;8.40;;;4.13;;
23728;SDS011;12045;60.214;24.724;2024-01-30T12:13:34;11.15;;;4.20;;
23728;SDS011;12045;60.214;24.724;2024-01-30T12:16:01;18.67;;;5.53;;
23728;SDS011;12045;60.214;24.724;2024-01-30T12:29:19;9.18;;;4.93;;
23728;SDS011;12045;60.214;24.724;2024-01-30T12:31:52;13.23;;;4.45;;
23728;SDS011;12045;60.214;24.724;2024-01-30T12:34:24;11.10;;;4.28;;
23728;SDS011;12045;60.214;24.724;2024-01-30T12:36:55;7.78;;;4.20;;
23728;SDS011;12045;60.214;24.724;2024-01-30T12:39:27;9.07;;;4.53;;
23728;SDS011;12045;60.214;24.724;2024-01-30T12:41:58;10.73;;;3.88;;
23728;SDS011;12045;60.214;24.724;2024-01-30T12:44:30;11.15;;;4.38;;
23728;SDS011;12045;60.214;24.724;2024-01-30T12:47:02;11.05;;;4.15;;
23728;SDS011;12045;60.214;24.724;2024-01-30T12:49:32;11.68;;;4.63;;
23728;SDS011;12045;60.214;24.724;2024-01-30T12:52:02;11.13;;;4.55;;
23728;SDS011;12045;60.214;24.724;2024-01-30T12:54:35;14.90;;;4.53;;
23728;SDS011;12045;60.214;24.724;2024-01-30T12:57:03;16.23;;;4.53;;
23728;SDS011;12045;60.214;24.724;2024-01-30T12:59:35;18.05;;;4.82;;
23728;SDS011;12045;60.214;24.724;2024-01-30T13:02:04;20.08;;;4.18;;
23728;SDS011;12045;60.214;24.724;2024-01-30T13:04:34;25.75;;;4.38;;
23728;SDS011;12045;60.214;24.724;2024-01-30T13:07:07;8.30;;;3.85;;
23728;SDS011;12045;60.214;24.724;2024-01-30T13:09:37;16.08;;;4.43;;
23728;SDS011;12045;60.214;24.724;2024-01-30T16:12:45;22.83;;;5.23;;
23728;SDS011;12045;60.214;24.724;2024-01-30T16:15:13;22.73;;;5.60;;
23728;SDS011;12045;60.214;24.724;2024-01-30T16:17:43;36.57;;;6.87;;
23728;SDS011;12045;60.214;24.724;2024-01-30T16:20:11;30.23;;;6.87;;
23728;SDS011;12045;60.214;24.724;2024-01-30T16:22:42;31.60;;;6.20;;
23728;SDS011;12045;60.214;24.724;2024-01-30T16:25:10;36.30;;;6.47;;
23728;SDS011;12045;60.214;24.724;2024-01-30T16:27:39;45.30;;;7.03;;
23728;SDS011;12045;60.214;24.724;2024-01-30T16:30:08;36.13;;;5.87;;
23728;SDS011;12045;60.214;24.724;2024-01-30T16:32:37;30.87;;;5.97;;
23728;SDS011;12045;60.214;24.724;2024-01-30T16:35:05;44.55;;;6.63;;
23728;SDS011;12045;60.214;24.724;2024-01-30T16:37:34;27.90;;;6.37;;
23728;SDS011;12045;60.214;24.724;2024-01-30T16:45:07;31.77;;;5.80;;
23728;SDS011;12045;60.214;24.724;2024-01-30T16:47:35;17.03;;;5.67;;
23728;SDS011;12045;60.214;24.724;2024-01-30T16:50:03;20.03;;;6.07;;
23728;SDS011;12045;60.214;24.724;2024-01-30T16:52:31;36.17;;;6.87;;
23728;SDS011;12045;60.214;24.724;2024-01-30T16:54:59;29.77;;;6.50;;
23728;SDS011;12045;60.214;24.724;2024-01-30T16:57:27;33.33;;;6.20;;
23728;SDS011;12045;60.214;24.724;2024-01-30T16:59:55;24.27;;;6.27;;
23728;SDS011;12045;60.214;24.724;2024-01-30T17:02:25;19.77;;;5.90;;
23728;SDS011;12045;60.214;24.724;2024-01-30T17:04:53;36.80;;;6.53;;
23728;SDS011;12045;60.214;24.724;2024-01-30T17:07:28;19.20;;;5.53;;
23728;SDS011;12045;60.214;24.724;2024-01-30T17:10:02;12.77;;;5.30;;
23728;SDS011;12045;60.214;24.724;2024-01-30T17:12:31;11.00;;;4.97;;
23728;SDS011;12045;60.214;24.724;2024-01-30T17:14:59;11.97;;;4.63;;
23728;SDS011;12045;60.214;24.724;2024-01-30T17:17:28;20.30;;;4.93;;
23728;SDS011;12045;60.214;24.724;2024-01-30T17:19:57;11.43;;;4.70;;
23728;SDS011;12045;60.214;24.724;2024-01-30T17:22:25;18.60;;;4.30;;
23728;SDS011;12045;60.214;24.724;2024-01-30T17:24:54;11.40;;;4.03;;
23728;SDS011;12045;60.214;24.724;2024-01-30T17:27:23;12.03;;;4.03;;
23728;SDS011;12045;60.214;24.724;2024-01-30T17:29:51;35.77;;;5.53;;
23728;SDS011;12045;60.214;24.724;2024-01-30T17:32:18;26.07;;;4.67;;
23728;SDS011;12045;60.214;24.724;2024-01-30T17:34:49;13.32;;;3.45;;
23728;SDS011;12045;60.214;24.724;2024-01-30T17:37:17;23.77;;;4.20;;
23728;SDS011;12045;60.214;24.724;2024-01-30T17:39:46;19.00;;;4.60;;
23728;SDS011;12045;60.214;24.724;2024-01-30T17:42:15;21.63;;;5.20;;
23728;SDS011;12045;60.214;24.724;2024-01-30T17:44:47;12.60;;;4.53;;
23728;SDS011;12045;60.214;24.724;2024-01-30T17:47:15;12.10;;;4.30;;
23728;SDS011;12045;60.214;24.724;2024-01-30T17:49:44;23.63;;;5.33;;
23728;SDS011;12045;60.214;24.724;2024-01-30T17:52:11;30.10;;;4.87;;
23728;SDS011;12045;60.214;24.724;2024-01-30T17:54:40;26.23;;;5.60;;
23728;SDS011;12045;60.214;24.724;2024-01-30T17:57:10;36.37;;;5.93;;
23728;SDS011;12045;60.214;24.724;2024-01-30T17:59:38;58.67;;;5.93;;
23728;SDS011;12045;60.214;24.724;2024-01-30T18:02:06;24.00;;;5.30;;
23728;SDS011;12045;60.214;24.724;2024-01-30T18:04:37;32.97;;;6.07;;
23728;SDS011;12045;60.214;24.724;2024-01-30T18:07:07;18.17;;;5.53;;
23728;SDS011;12045;60.214;24.724;2024-01-30T18:09:37;40.40;;;6.47;;
23728;SDS011;12045;60.214;24.724;2024-01-30T18:12:06;32.93;;;6.13;;
23728;SDS011;12045;60.214;24.724;2024-01-30T18:14:36;30.43;;;5.80;;
23728;SDS011;12045;60.214;24.724;2024-01-30T18:17:04;48.40;;;7.13;;
23728;SDS011;12045;60.214;24.724;2024-01-30T18:19:33;36.43;;;6.00;;
23728;SDS011;12045;60.214;24.724;2024-01-30T18:22:02;33.23;;;5.67;;
23728;SDS011;12045;60.214;24.724;2024-01-30T18:24:31;46.00;;;7.07;;